createdAt,value
2023-01-19T00:00:13.905Z,26.6
2023-01-19T00:05:36.558Z,27.5
2023-01-19T00:10:59.377Z,27.2
2023-01-19T00:16:23.399Z,26.7
2023-01-19T00:21:32.248Z,25.6
2023-01-19T00:26:40.070Z,27.2
2023-01-19T00:32:02.660Z,27.4
2023-01-19T00:37:26.309Z,27.1
2023-01-19T00:42:47.801Z,25.6
2023-01-19T00:48:10.627Z,26.5
2023-01-19T00:53:34.151Z,27.5
2023-01-19T00:58:56.717Z,27.3
2023-01-19T01:04:34.814Z,26.9
2023-01-19T01:09:41.469Z,25.6
2023-01-19T01:15:38.079Z,27.1
2023-01-19T01:21:01.621Z,27.5
2023-01-19T01:26:27.048Z,27.1
2023-01-19T01:31:50.098Z,26.1
2023-01-19T01:37:34.638Z,26.1
2023-01-19T01:42:56.981Z,27.6
2023-01-19T01:48:03.892Z,27.4
2023-01-19T01:53:40.635Z,27.1
2023-01-19T01:59:02.886Z,25.7
2023-01-19T02:04:12.251Z,26.6
2023-01-19T02:09:35.828Z,27.7
2023-01-19T02:14:58.624Z,27.4
2023-01-19T02:20:20.161Z,26.9
2023-01-19T02:25:27.724Z,25.6
2023-01-19T02:30:50.668Z,26.7
2023-01-19T02:36:13.483Z,27.7
2023-01-19T02:41:36.547Z,27.4
2023-01-19T02:46:59.307Z,26.9
2023-01-19T02:52:22.147Z,25.6
2023-01-19T02:57:45.174Z,26.8
2023-01-19T03:03:09.175Z,27.7
2023-01-19T03:08:14.977Z,27.4
2023-01-19T03:13:22.179Z,26.9
2023-01-19T03:18:46.854Z,25.6
2023-01-19T03:24:08.880Z,26.9
2023-01-19T03:29:32.177Z,27.7
2023-01-19T03:34:55.112Z,27.4
2023-01-19T03:40:17.130Z,26.9
2023-01-19T03:45:24.749Z,25.6
2023-01-19T03:50:47.845Z,26.9
2023-01-19T03:56:09.441Z,27.7
2023-01-19T04:01:32.612Z,27.4
2023-01-19T04:06:56.014Z,26.9
2023-01-19T04:12:17.889Z,25.7
2023-01-19T04:17:40.826Z,26.9
2023-01-19T04:23:04.203Z,27.7
2023-01-19T04:28:26.862Z,27.3
2023-01-19T04:33:50.361Z,26.9
2023-01-19T04:38:59.920Z,25.8
2023-01-19T04:44:22.741Z,27.1
2023-01-19T04:49:31.622Z,27.7
2023-01-19T04:54:39.528Z,27.3
2023-01-19T05:00:01.930Z,26.9
2023-01-19T05:05:25.410Z,25.7
2023-01-19T05:10:32.172Z,27.3
2023-01-19T05:15:54.207Z,27.8
2023-01-19T05:21:04.270Z,27.4
2023-01-19T05:26:11.794Z,26.9
2023-01-19T05:31:19.726Z,25.8
2023-01-19T05:36:55.726Z,26.8
2023-01-19T05:42:29.280Z,27.7
2023-01-19T05:47:52.816Z,27.4
2023-01-19T05:53:16.028Z,26.9
2023-01-19T05:58:38.495Z,25.8
2023-01-19T06:04:02.064Z,27.1
2023-01-19T06:09:27.877Z,27.1
2023-01-19T06:14:34.556Z,26.8
2023-01-19T06:19:57.686Z,26.4
2023-01-19T06:25:22.324Z,26.1
2023-01-19T06:30:44.588Z,25.7
2023-01-19T06:36:08.045Z,25.1
2023-01-19T06:41:30.862Z,25.9
2023-01-19T06:46:38.570Z,26.6
2023-01-19T06:52:01.021Z,26.3
2023-01-19T06:57:29.929Z,26
2023-01-19T07:03:18.015Z,25.7
2023-01-19T07:08:39.833Z,25.3
2023-01-19T07:15:04.565Z,24.8
2023-01-19T07:20:27.964Z,26.4
2023-01-19T07:25:50.507Z,26.5
2023-01-19T07:31:13.454Z,26.2
2023-01-19T07:36:36.882Z,25.9
2023-01-19T07:41:59.516Z,25.6
2023-01-19T07:47:22.464Z,25
2023-01-19T07:52:45.123Z,24.9
2023-01-19T07:58:07.466Z,26.4
2023-01-19T08:03:31.772Z,26.3
2023-01-19T08:08:55.136Z,26.1
2023-01-19T08:14:02.011Z,25.8
2023-01-19T08:19:25.100Z,25.5
2023-01-19T08:24:50.269Z,24.7
2023-01-19T08:30:13.174Z,26.1
2023-01-19T08:35:33.674Z,26.3
2023-01-19T08:40:56.463Z,26.2
2023-01-19T08:46:27.701Z,26
2023-01-19T08:51:50.649Z,25.8
2023-01-19T08:57:13.800Z,25.5
2023-01-19T09:02:32.239Z,25.2
2023-01-19T09:07:40.249Z,24.5
2023-01-19T09:13:03.458Z,25.3
2023-01-19T09:18:26.714Z,26.3
2023-01-19T09:23:49.474Z,26.3
2023-01-19T09:29:12.166Z,26.1
2023-01-19T09:34:35.399Z,25.9
2023-01-19T09:39:59.325Z,25.7
2023-01-19T09:45:22.210Z,25.4
2023-01-19T09:50:45.017Z,25.1
2023-01-19T09:56:08.159Z,24.8
2023-01-19T10:01:33.263Z,24.4
2023-01-19T10:06:57.193Z,24.1
2023-01-19T10:12:31.567Z,23.8
2023-01-19T10:17:54.138Z,23.5
2023-01-19T10:23:04.650Z,23.3
2023-01-19T10:28:27.623Z,23
2023-01-19T10:33:52.237Z,22.9
2023-01-19T10:39:15.092Z,22.7
2023-01-19T10:44:24.877Z,22.5
2023-01-19T10:49:47.979Z,22.4
2023-01-19T10:54:55.098Z,22.3
2023-01-19T10:59:47.203Z,22.1
2023-01-19T11:04:55.954Z,22
2023-01-19T11:10:02.897Z,21.9
2023-01-19T11:15:25.325Z,21.8
2023-01-19T11:20:47.596Z,21.7
2023-01-19T11:26:10.023Z,21.6
2023-01-19T11:31:33.826Z,21.5
2023-01-19T11:36:57.019Z,21.4
2023-01-19T11:42:19.166Z,21.4
2023-01-19T11:47:40.806Z,21.3
2023-01-19T11:52:49.499Z,21.3
2023-01-19T11:57:56.002Z,21.2
2023-01-19T12:13:18.794Z,21.1
2023-01-19T12:18:41.733Z,21
2023-01-19T12:24:08.874Z,20.9
2023-01-19T12:29:31.914Z,20.9
2023-01-19T12:34:41.417Z,20.8
2023-01-19T12:40:04.644Z,20.8
2023-01-19T12:45:27.455Z,20.8
2023-01-19T12:50:55.078Z,20.7
2023-01-19T12:56:20.123Z,20.6
2023-01-19T13:01:42.351Z,20.6
2023-01-19T13:07:05.287Z,20.6
2023-01-19T13:12:33.876Z,20.4
2023-01-19T13:17:56.132Z,20.4
2023-01-19T13:23:18.558Z,20.3
2023-01-19T13:28:41.327Z,20.3
2023-01-19T13:34:04.511Z,20.2
2023-01-19T13:39:28.032Z,20.1
2023-01-19T13:44:51.139Z,20.1
2023-01-19T13:50:02.025Z,20
2023-01-19T13:55:27.359Z,20
2023-01-19T14:00:51.082Z,19.9
2023-01-19T14:06:15.731Z,19.9
2023-01-19T14:11:38.701Z,19.9
2023-01-19T14:17:10.413Z,19.9
2023-01-19T14:22:34.559Z,19.8
2023-01-19T14:27:57.504Z,19.8
2023-01-19T14:33:20.193Z,19.8
2023-01-19T14:38:27.481Z,19.8
2023-01-19T14:43:50.511Z,19.8
2023-01-19T14:49:13.647Z,19.8
2023-01-19T14:54:50.996Z,19.8
2023-01-19T15:00:15.544Z,19.8
2023-01-19T15:05:50.477Z,19.8
2023-01-19T15:11:12.923Z,19.8
2023-01-19T15:16:20.342Z,19.8
2023-01-19T15:21:43.642Z,19.9
2023-01-19T15:26:51.212Z,19.8
2023-01-19T15:31:59.124Z,19.9
2023-01-19T15:37:07.954Z,19.9
2023-01-19T15:41:59.580Z,19.9
2023-01-19T15:46:51.387Z,19.9
2023-01-19T15:51:59.198Z,19.9
2023-01-19T15:56:51.681Z,19.9
2023-01-19T16:02:14.797Z,19.9
2023-01-19T16:07:40.242Z,19.9
2023-01-19T16:13:03.595Z,19.9
2023-01-19T16:18:28.090Z,19.9
2023-01-19T16:24:04.706Z,19.9
2023-01-19T16:29:27.611Z,19.9
2023-01-19T16:34:34.459Z,19.8
2023-01-19T16:39:44.312Z,19.8
2023-01-19T16:45:09.426Z,19.8
2023-01-19T16:50:31.232Z,19.8
2023-01-19T16:55:54.220Z,19.9
2023-01-19T17:01:02.716Z,19.8
2023-01-19T17:06:25.019Z,19.8
2023-01-19T17:11:48.151Z,21.7
2023-01-19T17:17:11.183Z,23.3
2023-01-19T17:22:17.840Z,24.8
2023-01-19T17:27:40.683Z,25.2
2023-01-19T17:32:33.320Z,23.8
2023-01-19T17:37:40.832Z,25
2023-01-19T17:42:47.973Z,25.5
2023-01-19T17:47:39.369Z,25.4
2023-01-19T17:52:34.315Z,23.6
2023-01-19T17:57:41.082Z,24.9
2023-01-19T18:03:05.927Z,25.6
2023-01-19T18:08:30.253Z,25.5
2023-01-19T18:13:40.208Z,25.3
2023-01-19T18:19:04.825Z,25.1
2023-01-19T18:24:29.504Z,24.9
2023-01-19T18:29:38.456Z,24.7
2023-01-19T18:35:03.687Z,24.4
2023-01-19T18:40:29.781Z,22.9
2023-01-19T18:45:54.619Z,25
2023-01-19T18:51:28.333Z,25.6
2023-01-19T18:57:03.928Z,25.4
2023-01-19T19:02:43.255Z,25.3
2023-01-19T19:08:24.689Z,25.1
2023-01-19T19:13:44.104Z,24.8
2023-01-19T19:19:04.942Z,24.6
2023-01-19T19:24:22.906Z,23.4
2023-01-19T19:29:43.792Z,23.4
2023-01-19T19:35:05.247Z,25.1
2023-01-19T19:40:46.382Z,25.4
2023-01-19T19:46:29.010Z,25.4
2023-01-19T19:52:03.176Z,25.2
2023-01-19T19:57:41.307Z,24.9
2023-01-19T20:03:06.764Z,24.7
2023-01-19T20:08:47.207Z,24.4
2023-01-19T20:14:28.712Z,23
2023-01-19T20:19:53.563Z,25
2023-01-19T20:25:31.376Z,25.5
2023-01-19T20:30:50.071Z,25.4
2023-01-19T20:36:04.333Z,25.2
2023-01-19T20:41:17.087Z,24.9
2023-01-19T20:46:29.739Z,24.8
2023-01-19T20:51:39.871Z,24.5
2023-01-19T20:56:50.863Z,24.3
2023-01-19T21:02:05.017Z,23
2023-01-19T21:07:17.100Z,24.4
2023-01-19T21:12:30.776Z,25.4
2023-01-19T21:17:40.639Z,25.3
2023-01-19T21:22:42.141Z,25.2
2023-01-19T21:27:49.690Z,25.1
2023-01-19T21:32:57.905Z,24.8
2023-01-19T21:37:49.894Z,24.6
2023-01-19T21:42:57.540Z,24.4
2023-01-19T21:48:04.946Z,23.3
2023-01-19T21:53:12.807Z,23.8
2023-01-19T21:58:19.859Z,25.3
2023-01-19T22:03:53.483Z,25.6
2023-01-19T22:09:00.868Z,24.1
2023-01-19T22:14:09.883Z,25.1
2023-01-19T22:19:17.333Z,26.3
2023-01-19T22:24:09.349Z,26.7
2023-01-19T22:29:16.676Z,25.4
2023-01-19T22:34:24.628Z,26.1
2023-01-19T22:39:48.237Z,26.9
2023-01-19T22:45:11.604Z,26.9
2023-01-19T22:50:35.613Z,25.3
2023-01-19T22:55:43.417Z,26.6
2023-01-19T23:01:05.624Z,27.1
2023-01-19T23:06:14.990Z,26.9
2023-01-19T23:11:37.627Z,25.4
2023-01-19T23:16:44.571Z,26.1
2023-01-19T23:21:52.092Z,27.2
2023-01-19T23:26:59.629Z,27.1
2023-01-19T23:32:22.553Z,26.8
2023-01-19T23:37:44.715Z,25.3
2023-01-19T23:43:06.873Z,26.8
2023-01-19T23:48:29.636Z,27.3
2023-01-19T23:53:21.040Z,27.1
2023-01-19T23:58:12.247Z,26.3
